Time;durP1;ratioP1;P1;durP2;ratioP2;P2;SDS_P1;SDS_P2;PMS_P1;PMS_P2;Temp;Humidity;BMP_temperature;BMP_pressure;BME280_temperature;BME280_humidity;BME280_pressure;Samples;Min_cycle;Max_cycle;Signal;HPM_P1;HPM_P2
2024/02/10 00:01:48;;;;;;;10.93;2.83;;;12.90;93.70;;;;;;4943617;28;20213;-82
2024/02/10 00:04:21;;;;;;;5.40;2.50;;;13.00;93.60;;;;;;4968013;28;20201;-83
2024/02/10 00:06:54;;;;;;;4.17;2.10;;;13.00;93.60;;;;;;4958825;28;20684;-82
2024/02/10 00:09:24;;;;;;;8.73;2.50;;;13.00;93.50;;;;;;4946260;28;20310;-83
2024/02/10 00:11:53;;;;;;;8.03;2.70;;;13.00;93.40;;;;;;4951893;28;20745;-82
2024/02/10 00:14:21;;;;;;;7.57;2.37;;;13.00;93.30;;;;;;4959491;28;20209;-81
2024/02/10 00:16:50;;;;;;;6.37;2.63;;;13.00;93.30;;;;;;4949937;28;20252;-82
2024/02/10 00:19:20;;;;;;;7.53;2.87;;;13.00;93.20;;;;;;4957997;28;20208;-81
2024/02/10 00:21:51;;;;;;;10.73;2.70;;;13.00;93.10;;;;;;4996842;28;20207;-82
2024/02/10 00:24:26;;;;;;;7.47;3.10;;;13.00;93.10;;;;;;5038886;28;20201;-83
2024/02/10 00:27:01;;;;;;;8.10;2.53;;;13.10;93.10;;;;;;5024953;28;20229;-83
2024/02/10 00:29:33;;;;;;;9.07;2.80;;;13.10;93.10;;;;;;5018286;28;20646;-83
2024/02/10 00:32:09;;;;;;;8.33;2.40;;;13.00;93.10;;;;;;5018691;28;20210;-83
2024/02/10 00:34:39;;;;;;;5.63;2.60;;;13.10;93.10;;;;;;5018908;28;20231;-83
2024/02/10 00:37:08;;;;;;;6.17;2.43;;;13.00;93.10;;;;;;5009766;28;20228;-85
2024/02/10 00:39:35;;;;;;;4.40;2.13;;;13.00;93.10;;;;;;5007947;28;20212;-83
2024/02/10 00:42:04;;;;;;;5.27;2.77;;;12.90;93.20;;;;;;4997294;28;20222;-83
2024/02/10 00:44:38;;;;;;;9.40;2.70;;;12.90;93.30;;;;;;5002806;28;20204;-82
2024/02/10 00:47:12;;;;;;;7.70;2.53;;;12.80;93.40;;;;;;5002853;28;20625;-83
2024/02/10 00:49:42;;;;;;;6.13;2.87;;;12.80;93.50;;;;;;5003984;28;20208;-82
2024/02/10 00:52:09;;;;;;;5.57;2.67;;;12.70;93.60;;;;;;4997375;28;20228;-84
2024/02/10 00:54:37;;;;;;;7.80;3.20;;;12.70;93.60;;;;;;4991312;28;20197;-84
2024/02/10 00:57:10;;;;;;;8.40;2.83;;;12.60;93.60;;;;;;5029700;28;20266;-81
2024/02/10 00:59:41;;;;;;;5.37;2.50;;;12.60;93.60;;;;;;5011659;28;20251;-81
2024/02/10 01:02:09;;;;;;;6.17;2.70;;;12.60;93.60;;;;;;5016902;28;20659;-83
2024/02/10 01:04:38;;;;;;;5.87;2.50;;;12.60;93.70;;;;;;5012875;28;20204;-81
2024/02/10 01:07:08;;;;;;;8.50;3.43;;;12.60;93.80;;;;;;5026716;28;20207;-82
2024/02/10 01:09:40;;;;;;;7.87;3.60;;;12.60;93.80;;;;;;5022946;28;20212;-81
2024/02/10 01:12:09;;;;;;;9.13;3.57;;;12.50;93.80;;;;;;5003672;28;20201;-81
2024/02/10 01:14:50;;;;;;;5.40;3.00;;;12.50;93.80;;;;;;5003876;28;20504;-82
2024/02/10 01:17:18;;;;;;;9.70;3.53;;;12.50;93.90;;;;;;5023622;28;20223;-82
2024/02/10 01:19:50;;;;;;;8.87;3.97;;;12.50;93.90;;;;;;5020281;28;20209;-81
2024/02/10 01:22:29;;;;;;;6.10;3.27;;;12.50;94.00;;;;;;5023101;28;20207;-84
2024/02/10 01:24:57;;;;;;;10.73;3.43;;;12.40;94.00;;;;;;5014449;28;20207;-83
2024/02/10 01:27:28;;;;;;;8.60;3.17;;;12.50;94.00;;;;;;5021224;28;20238;-81
2024/02/10 01:30:03;;;;;;;10.00;3.10;;;12.50;94.00;;;;;;5006579;28;20632;-81
2024/02/10 01:32:32;;;;;;;7.70;3.67;;;12.50;93.90;;;;;;5068336;28;20653;-81
2024/02/10 01:35:03;;;;;;;11.07;3.17;;;12.50;93.90;;;;;;5020783;28;20285;-81
2024/02/10 01:37:31;;;;;;;8.57;3.30;;;12.50;93.80;;;;;;5014137;28;20220;-80
2024/02/10 01:40:04;;;;;;;9.00;3.30;;;12.60;93.80;;;;;;5033923;28;20208;-81
2024/02/10 01:42:40;;;;;;;9.37;3.87;;;12.60;93.70;;;;;;5014150;28;20647;-82
2024/02/10 01:45:11;;;;;;;7.40;3.40;;;12.60;93.70;;;;;;5009563;28;20238;-83
2024/02/10 01:47:46;;;;;;;5.33;2.97;;;12.60;93.60;;;;;;5018126;28;20211;-82
2024/02/10 01:50:14;;;;;;;10.07;4.03;;;12.60;93.50;;;;;;5001551;28;20275;-82
2024/02/10 01:52:45;;;;;;;11.97;3.40;;;12.60;93.40;;;;;;5013786;28;20235;-82
2024/02/10 01:55:27;;;;;;;9.20;4.23;;;12.60;93.50;;;;;;5010287;28;20212;-82
2024/02/10 01:58:06;;;;;;;11.17;4.70;;;12.60;93.60;;;;;;4998106;28;20250;-80
2024/02/10 02:00:38;;;;;;;6.90;3.60;;;12.60;93.70;;;;;;5013159;28;20212;-81
2024/02/10 02:03:10;;;;;;;8.83;4.00;;;12.50;93.80;;;;;;5066527;28;20207;-80
2024/02/10 02:05:39;;;;;;;8.40;4.10;;;12.50;93.80;;;;;;5024565;28;20263;-82
2024/02/10 02:08:07;;;;;;;12.00;3.87;;;12.50;93.80;;;;;;5034091;28;20216;-83
2024/02/10 02:10:36;;;;;;;13.17;3.70;;;12.50;93.90;;;;;;5038111;27;20540;-83
2024/02/10 02:13:05;;;;;;;5.90;3.50;;;12.50;93.90;;;;;;5042111;28;20208;-81
2024/02/10 02:15:36;;;;;;;7.40;3.60;;;12.50;93.90;;;;;;5023637;28;20223;-80
2024/02/10 02:18:04;;;;;;;5.50;3.57;;;12.50;93.90;;;;;;5024850;28;20216;-80
2024/02/10 02:20:31;;;;;;;9.83;4.70;;;12.50;93.90;;;;;;4997778;28;20209;-79
2024/02/10 02:23:03;;;;;;;11.03;3.90;;;12.50;93.90;;;;;;5017730;28;20207;-81
2024/02/10 02:25:34;;;;;;;7.80;4.37;;;12.50;93.90;;;;;;4994751;28;20201;-82
2024/02/10 02:28:02;;;;;;;5.97;3.53;;;12.50;93.90;;;;;;5012596;28;20213;-83
2024/02/10 02:30:34;;;;;;;7.97;3.67;;;12.60;94.00;;;;;;5003531;28;20221;-81
2024/02/10 02:33:07;;;;;;;8.37;3.27;;;12.60;94.10;;;;;;5003278;28;20200;-82
2024/02/10 02:35:43;;;;;;;9.23;3.60;;;12.60;94.20;;;;;;5016914;28;20227;-82
2024/02/10 02:38:14;;;;;;;9.73;3.60;;;12.50;94.20;;;;;;5006458;28;20216;-82
2024/02/10 02:40:42;;;;;;;7.27;4.03;;;12.50;94.30;;;;;;5014507;28;20244;-83
2024/02/10 02:43:13;;;;;;;10.50;3.40;;;12.50;94.30;;;;;;5016381;28;20212;-81
2024/02/10 02:45:43;;;;;;;8.70;3.80;;;12.50;94.30;;;;;;5064918;28;20200;-83
2024/02/10 02:48:10;;;;;;;10.17;3.10;;;12.50;94.30;;;;;;5000808;28;20490;-83
2024/02/10 02:50:46;;;;;;;7.17;3.63;;;12.60;94.60;;;;;;4986959;28;20208;-81
2024/02/10 02:53:22;;;;;;;7.40;3.03;;;12.50;94.20;;;;;;5002586;28;20550;-81
2024/02/10 02:55:55;;;;;;;10.90;4.10;;;12.50;94.10;;;;;;5015545;28;20220;-81
2024/02/10 02:58:23;;;;;;;6.50;3.93;;;12.50;94.10;;;;;;5019011;28;20245;-86
2024/02/10 03:00:55;;;;;;;8.90;3.93;;;12.50;94.20;;;;;;5004252;28;20213;-82
2024/02/10 03:03:27;;;;;;;5.67;3.37;;;12.50;94.20;;;;;;5007440;28;20627;-81
2024/02/10 03:05:58;;;;;;;7.37;3.37;;;12.50;94.30;;;;;;5066699;28;20726;-81
2024/02/10 03:08:29;;;;;;;12.93;4.30;;;12.50;94.40;;;;;;5060305;28;20290;-82
2024/02/10 03:10:57;;;;;;;9.27;3.87;;;12.50;94.50;;;;;;4997474;28;20207;-83
2024/02/10 03:13:25;;;;;;;6.57;4.23;;;12.50;94.50;;;;;;5014802;28;20240;-83
2024/02/10 03:16:00;;;;;;;8.00;4.03;;;12.40;94.50;;;;;;5005793;28;20219;-82
2024/02/10 03:18:31;;;;;;;9.27;3.57;;;12.40;94.60;;;;;;5050808;28;20208;-82
2024/02/10 03:20:59;;;;;;;11.03;4.60;;;12.40;94.60;;;;;;5005440;28;20203;-82
2024/02/10 03:23:31;;;;;;;10.10;3.70;;;12.40;94.60;;;;;;5051622;28;20195;-83
2024/02/10 03:26:03;;;;;;;10.53;4.27;;;12.40;94.60;;;;;;5056474;28;20286;-82
2024/02/10 03:28:33;;;;;;;9.40;3.57;;;12.40;94.70;;;;;;5003146;28;20708;-84
2024/02/10 03:31:02;;;;;;;8.53;4.37;;;12.40;94.70;;;;;;4995830;28;20224;-83
2024/02/10 03:33:36;;;;;;;9.23;3.70;;;12.40;94.80;;;;;;5051579;28;20204;-82
2024/02/10 03:36:05;;;;;;;5.50;3.23;;;12.30;94.90;;;;;;5029872;28;20215;-81
2024/02/10 03:38:32;;;;;;;7.90;3.80;;;12.20;94.90;;;;;;5013887;28;20265;-82
2024/02/10 03:41:02;;;;;;;11.53;3.70;;;12.20;95.00;;;;;;4990127;28;20201;-80
2024/02/10 03:43:30;;;;;;;6.97;3.27;;;12.20;95.10;;;;;;5030494;28;20204;-83
2024/02/10 03:45:57;;;;;;;4.20;3.17;;;12.20;95.20;;;;;;5031159;28;20238;-84
2024/02/10 03:48:26;;;;;;;7.83;3.27;;;12.20;95.20;;;;;;5022268;28;20533;-83
2024/02/10 03:50:57;;;;;;;5.60;3.37;;;12.20;95.20;;;;;;5044192;28;20215;-82
2024/02/10 03:53:26;;;;;;;11.83;4.10;;;12.20;95.20;;;;;;5003499;28;20208;-81
2024/02/10 03:55:56;;;;;;;7.33;3.87;;;12.20;95.40;;;;;;5053389;28;20272;-82
2024/02/10 03:58:27;;;;;;;12.20;3.70;;;12.20;95.50;;;;;;5035270;28;20332;-82
2024/02/10 04:00:54;;;;;;;7.13;4.07;;;12.10;95.60;;;;;;5006924;28;20218;-83
2024/02/10 04:03:22;;;;;;;8.07;3.80;;;12.10;95.60;;;;;;5007857;28;20240;-84
2024/02/10 04:05:51;;;;;;;5.50;3.80;;;12.10;95.70;;;;;;5020563;28;20210;-83
2024/02/10 04:08:18;;;;;;;6.27;3.43;;;12.10;95.80;;;;;;5017679;28;20215;-82
2024/02/10 04:10:46;;;;;;;6.87;3.50;;;12.10;95.80;;;;;;5014312;28;20226;-80
2024/02/10 04:13:16;;;;;;;3.53;2.77;;;12.10;95.90;;;;;;4995819;28;20262;-83
2024/02/10 04:15:44;;;;;;;8.63;3.83;;;12.10;95.90;;;;;;5003924;28;20208;-82
2024/02/10 04:18:19;;;;;;;5.50;3.00;;;12.10;95.90;;;;;;5017218;28;20231;-83
2024/02/10 04:20:46;;;;;;;11.00;2.90;;;12.10;95.90;;;;;;5027046;28;20207;-83
2024/02/10 04:23:15;;;;;;;7.90;3.50;;;12.10;95.90;;;;;;4999610;28;20205;-83
2024/02/10 04:25:45;;;;;;;8.83;3.47;;;12.20;95.90;;;;;;4986435;28;20212;-84
2024/02/10 04:28:15;;;;;;;8.43;2.67;;;12.20;95.90;;;;;;5027420;28;20207;-83
2024/02/10 04:30:42;;;;;;;8.27;3.40;;;12.20;95.90;;;;;;5037716;28;20207;-82
2024/02/10 04:33:35;;;;;;;8.43;3.23;;;12.20;95.80;;;;;;5028419;28;20294;-83
2024/02/10 04:36:07;;;;;;;8.73;3.50;;;12.20;95.80;;;;;;5036356;28;20200;-85
2024/02/10 04:39:52;;;;;;;8.27;4.10;;;12.20;95.80;;;;;;5017445;28;20235;-82
2024/02/10 04:42:44;;;;;;;7.83;3.50;;;12.20;95.80;;;;;;5091062;28;20208;-82
2024/02/10 04:45:26;;;;;;;10.00;3.60;;;12.20;95.80;;;;;;5049220;28;20200;-83
2024/02/10 04:48:08;;;;;;;7.00;3.77;;;12.20;95.80;;;;;;5010631;28;20609;-84
2024/02/10 04:51:43;;;;;;;9.13;3.73;;;12.30;95.80;;;;;;5019070;28;20219;-84
2024/02/10 04:54:39;;;;;;;6.67;3.23;;;12.20;95.70;;;;;;5007729;28;20541;-82
2024/02/10 04:57:30;;;;;;;7.77;3.67;;;12.30;95.80;;;;;;5013784;28;20230;-83
2024/02/10 05:07:58;;;;;;;13.13;3.90;;;12.20;95.80;;;;;;5011264;28;20209;-83
2024/02/10 05:11:41;;;;;;;12.20;4.83;;;12.30;95.90;;;;;;5004986;28;20580;-82
2024/02/10 05:14:36;;;;;;;7.97;4.17;;;12.30;95.90;;;;;;4988891;28;20204;-82
2024/02/10 05:28:02;;;;;;;13.13;4.40;;;12.30;96.30;;;;;;5009333;28;20204;-83
2024/02/10 05:31:04;;;;;;;14.80;4.40;;;12.30;96.40;;;;;;5008223;28;20232;-85
2024/02/10 05:33:34;;;;;;;14.27;4.70;;;12.20;96.50;;;;;;5049252;28;20295;-84
2024/02/10 05:36:40;;;;;;;11.73;4.97;;;12.20;96.50;;;;;;5016587;28;20222;-83
2024/02/10 05:39:35;;;;;;;8.37;5.50;;;12.20;96.70;;;;;;5018662;28;20218;-82
2024/02/10 05:42:10;;;;;;;13.83;4.90;;;12.20;96.80;;;;;;5019224;28;20198;-84
2024/02/10 05:44:59;;;;;;;15.70;5.27;;;12.20;96.90;;;;;;5010341;28;20202;-84
2024/02/10 05:47:50;;;;;;;16.93;5.03;;;12.20;97.00;;;;;;4989083;28;20208;-85
2024/02/10 05:50:25;;;;;;;11.33;5.00;;;12.20;97.00;;;;;;5002590;28;20200;-84
2024/02/10 05:53:13;;;;;;;9.17;5.00;;;12.20;97.10;;;;;;5015185;28;20208;-83
2024/02/10 05:55:44;;;;;;;12.70;5.37;;;12.20;97.20;;;;;;5014456;28;20204;-85
2024/02/10 05:58:23;;;;;;;10.63;5.43;;;12.20;97.20;;;;;;5017078;28;20706;-84
2024/02/10 06:00:59;;;;;;;14.47;5.70;;;12.10;97.20;;;;;;5051644;28;20203;-84
2024/02/10 06:04:11;;;;;;;;;;;;;;;;;;;;;
2024/02/10 06:07:07;;;;;;;12.27;5.97;;;12.10;97.40;;;;;;5016238;28;20223;-85
2024/02/10 06:11:07;;;;;;;12.73;5.83;;;12.10;97.40;;;;;;5010986;28;20300;-84
2024/02/10 06:28:05;;;;;;;9.33;5.87;;;11.90;97.90;;;;;;4980168;28;20669;-85
2024/02/10 06:31:46;;;;;;;13.67;6.43;;;11.90;98.00;;;;;;4923224;29;20211;-84
2024/02/10 06:34:14;;;;;;;11.67;6.33;;;11.80;98.20;;;;;;4936220;29;20271;-84
2024/02/10 06:36:48;;;;;;;14.57;7.40;;;11.80;98.30;;;;;;4935795;29;20216;-85
2024/02/10 06:39:50;;;;;;;16.47;7.50;;;11.80;98.40;;;;;;4952009;29;20686;-84
2024/02/10 06:46:48;;;;;;;14.63;7.40;;;11.80;99.00;;;;;;4974494;28;20243;-84
2024/02/10 06:49:20;;;;;;;15.90;8.10;;;11.80;98.90;;;;;;4943364;28;20224;-84
2024/02/10 06:51:54;;;;;;;18.47;7.87;;;11.70;99.00;;;;;;4948627;28;20221;-84
2024/02/10 06:54:29;;;;;;;15.37;7.83;;;11.70;99.10;;;;;;4963568;28;20296;-84
2024/02/10 06:57:13;;;;;;;13.73;7.00;;;11.70;99.30;;;;;;4950240;28;20365;-84
2024/02/10 06:59:51;;;;;;;18.33;7.37;;;11.70;99.50;;;;;;4945397;28;20229;-85
2024/02/10 07:02:42;;;;;;;17.73;7.40;;;11.70;99.60;;;;;;4974325;28;20302;-84
2024/02/10 07:05:13;;;;;;;17.90;8.13;;;11.70;99.80;;;;;;4998434;28;20216;-84
2024/02/10 07:07:49;;;;;;;9.60;6.60;;;11.70;99.90;;;;;;4998353;28;20200;-84
2024/02/10 07:10:30;;;;;;;14.63;8.70;;;11.70;99.90;;;;;;4978837;28;20210;-84
2024/02/10 07:13:08;;;;;;;16.87;7.07;;;11.70;99.90;;;;;;4984239;28;20235;-84
2024/02/10 07:15:40;;;;;;;14.20;6.93;;;11.70;99.90;;;;;;4997412;28;20234;-83
2024/02/10 07:18:10;;;;;;;13.23;7.27;;;11.70;99.90;;;;;;4998102;28;20223;-84
2024/02/10 07:20:40;;;;;;;14.97;7.00;;;11.70;99.90;;;;;;4996946;28;20203;-84
2024/02/10 07:23:08;;;;;;;21.93;9.07;;;11.70;99.90;;;;;;4996396;28;20299;-83
2024/02/10 07:25:38;;;;;;;11.37;7.30;;;11.70;99.90;;;;;;4992824;28;20208;-85
2024/02/10 07:28:08;;;;;;;15.37;7.80;;;11.80;99.90;;;;;;5005685;28;20279;-84
2024/02/10 07:30:52;;;;;;;17.47;7.23;;;11.80;99.90;;;;;;5011738;28;20200;-85
2024/02/10 07:33:47;;;;;;;16.17;7.70;;;11.80;99.90;;;;;;4991551;28;20535;-85
2024/02/10 07:36:20;;;;;;;23.53;7.43;;;11.80;99.90;;;;;;5042160;28;20208;-86
2024/02/10 07:38:58;;;;;;;15.50;7.27;;;11.80;99.90;;;;;;5009102;28;20223;-86
2024/02/10 07:41:35;;;;;;;20.73;7.67;;;11.80;99.90;;;;;;5007903;28;20307;-85
2024/02/10 07:44:12;;;;;;;17.43;7.50;;;11.80;99.90;;;;;;5023060;28;20252;-84
2024/02/10 07:46:56;;;;;;;12.47;7.30;;;11.80;99.90;;;;;;5004713;28;20222;-85
2024/02/10 07:49:26;;;;;;;16.90;7.27;;;11.80;99.90;;;;;;5003949;28;20208;-85
2024/02/10 07:51:58;;;;;;;21.70;7.90;;;11.80;99.90;;;;;;5009147;28;20233;-85
2024/02/10 07:54:31;;;;;;;19.63;7.97;;;11.80;99.90;;;;;;4997619;28;20211;-85
2024/02/10 07:57:02;;;;;;;18.13;7.87;;;11.80;99.90;;;;;;4991136;28;20236;-85
2024/02/10 07:59:33;;;;;;;16.77;8.57;;;11.80;99.90;;;;;;5014215;28;20303;-86
2024/02/10 08:02:09;;;;;;;17.93;7.90;;;11.80;99.90;;;;;;5011852;28;20219;-85
2024/02/10 08:04:40;;;;;;;15.33;7.60;;;11.80;99.90;;;;;;5033964;28;20663;-85
2024/02/10 08:07:09;;;;;;;18.87;8.50;;;11.80;99.90;;;;;;5007367;28;20227;-86
2024/02/10 08:09:39;;;;;;;15.63;8.23;;;11.80;99.90;;;;;;5049590;27;20219;-85
2024/02/10 08:12:17;;;;;;;19.40;8.60;;;11.80;99.90;;;;;;5032019;28;20531;-87
2024/02/10 08:14:58;;;;;;;25.10;9.03;;;11.80;99.90;;;;;;4988157;28;20201;-85
2024/02/10 08:17:31;;;;;;;21.43;9.60;;;11.80;99.90;;;;;;4989317;28;20204;-84
2024/02/10 08:20:00;;;;;;;16.73;9.47;;;11.80;99.90;;;;;;5028246;28;20219;-85
2024/02/10 08:22:48;;;;;;;24.20;9.30;;;11.80;99.90;;;;;;5102097;28;20208;-85
2024/02/10 08:25:20;;;;;;;26.27;9.90;;;11.80;99.90;;;;;;5056244;28;20651;-85
2024/02/10 08:27:56;;;;;;;15.77;8.43;;;11.80;99.90;;;;;;5009712;28;20207;-84
2024/02/10 08:30:27;;;;;;;22.40;10.13;;;11.80;99.90;;;;;;5068482;28;20208;-85
2024/02/10 08:33:05;;;;;;;17.20;8.90;;;11.80;99.90;;;;;;5013759;28;20211;-85
2024/02/10 08:35:38;;;;;;;20.93;10.30;;;11.80;99.90;;;;;;5014525;28;20207;-85
2024/02/10 08:38:10;;;;;;;20.77;10.00;;;11.80;99.90;;;;;;4997008;28;20204;-85
2024/02/10 08:41:01;;;;;;;18.33;10.13;;;11.90;99.90;;;;;;4998644;28;20220;-85
2024/02/10 08:43:29;;;;;;;22.90;11.63;;;11.90;99.90;;;;;;5011175;28;20298;-86
2024/02/10 08:46:01;;;;;;;14.57;9.87;;;11.90;99.90;;;;;;5004190;28;20643;-86
2024/02/10 08:48:39;;;;;;;14.10;10.53;;;12.00;99.90;;;;;;4993590;28;20221;-86
2024/02/10 08:51:08;;;;;;;20.03;10.90;;;12.00;99.90;;;;;;5043206;28;20216;-86
2024/02/10 08:53:40;;;;;;;21.40;12.03;;;12.00;99.90;;;;;;5003926;28;20220;-86
2024/02/10 08:56:17;;;;;;;28.50;12.37;;;12.00;99.90;;;;;;5026122;28;20222;-85
2024/02/10 08:58:53;;;;;;;19.33;11.87;;;12.10;99.90;;;;;;5053627;28;20228;-86
2024/02/10 09:01:25;;;;;;;20.20;12.37;;;12.10;99.90;;;;;;5046265;28;20298;-85
2024/02/10 09:03:57;;;;;;;30.20;13.03;;;12.10;99.90;;;;;;4997271;28;20219;-86
2024/02/10 09:06:28;;;;;;;21.27;12.43;;;12.20;99.90;;;;;;5037287;28;20288;-86
2024/02/10 09:09:00;;;;;;;24.53;12.50;;;12.20;99.90;;;;;;4994888;28;20326;-85
2024/02/10 09:11:39;;;;;;;23.83;11.67;;;12.20;99.90;;;;;;5000826;28;20206;-85
2024/02/10 09:14:12;;;;;;;28.20;12.53;;;12.20;99.90;;;;;;4995882;28;20223;-85
2024/02/10 09:16:43;;;;;;;18.70;11.83;;;12.20;99.90;;;;;;4996550;28;20552;-85
2024/02/10 09:19:19;;;;;;;23.73;12.63;;;12.30;99.90;;;;;;4995124;28;20226;-83
2024/02/10 09:21:57;;;;;;;19.00;11.33;;;12.30;99.90;;;;;;4981364;28;20208;-85
2024/02/10 09:24:30;;;;;;;20.07;12.00;;;12.40;99.90;;;;;;4998600;28;20208;-86
2024/02/10 09:27:10;;;;;;;21.00;11.63;;;12.40;99.90;;;;;;4990442;28;20668;-85
2024/02/10 09:29:46;;;;;;;19.73;12.00;;;12.40;99.90;;;;;;5004229;28;20255;-83
2024/02/10 09:32:24;;;;;;;24.93;11.73;;;12.40;99.90;;;;;;5008195;28;20208;-84
2024/02/10 09:34:52;;;;;;;18.70;11.00;;;12.40;99.90;;;;;;5002816;28;20206;-84
2024/02/10 09:37:22;;;;;;;23.40;11.93;;;12.50;99.90;;;;;;5001080;28;20230;-83
2024/02/10 09:39:53;;;;;;;28.63;13.07;;;12.50;99.90;;;;;;5017982;28;20253;-85
2024/02/10 09:42:30;;;;;;;20.30;11.00;;;12.50;99.90;;;;;;4994452;28;20719;-85
2024/02/10 09:44:59;;;;;;;19.30;11.60;;;12.50;99.90;;;;;;5024698;28;20218;-83
2024/02/10 09:47:27;;;;;;;14.13;10.13;;;12.50;99.90;;;;;;5012413;28;20214;-83
2024/02/10 09:50:13;;;;;;;28.53;11.63;;;12.60;99.90;;;;;;5030799;28;20198;-84
2024/02/10 09:53:10;;;;;;;27.70;12.00;;;12.60;99.90;;;;;;5089467;28;20228;-83
2024/02/10 09:55:46;;;;;;;21.47;11.77;;;12.60;99.90;;;;;;4983421;28;20212;-84
2024/02/10 09:58:17;;;;;;;24.47;10.23;;;12.60;99.90;;;;;;5038247;28;20254;-84
2024/02/10 10:00:49;;;;;;;24.33;12.13;;;12.60;99.90;;;;;;5045959;28;20221;-83
2024/02/10 10:03:23;;;;;;;27.90;11.67;;;12.60;99.90;;;;;;5033253;28;20273;-84
2024/02/10 10:05:59;;;;;;;24.97;12.83;;;12.60;99.90;;;;;;5000055;28;20721;-84
2024/02/10 10:08:34;;;;;;;24.10;12.30;;;12.60;99.90;;;;;;5002190;28;20264;-84
2024/02/10 10:11:02;;;;;;;30.03;13.67;;;12.60;99.90;;;;;;4991928;28;20283;-84
2024/02/10 10:13:40;;;;;;;22.17;12.87;;;12.60;99.90;;;;;;4995202;28;20212;-84
2024/02/10 10:16:13;;;;;;;23.43;13.50;;;12.60;99.90;;;;;;4998303;28;20206;-84
2024/02/10 10:18:56;;;;;;;23.53;13.17;;;12.60;99.90;;;;;;4993686;28;20207;-84
2024/02/10 10:21:32;;;;;;;23.90;12.73;;;12.60;99.90;;;;;;5007550;28;20202;-84
2024/02/10 10:24:07;;;;;;;28.47;12.93;;;12.60;99.90;;;;;;5006157;28;20206;-84
2024/02/10 10:27:02;;;;;;;20.17;12.47;;;12.60;99.90;;;;;;5012127;28;20219;-84
2024/02/10 10:29:43;;;;;;;21.43;12.57;;;12.60;99.90;;;;;;5014333;28;20256;-84
2024/02/10 10:32:52;;;;;;;21.97;12.67;;;12.60;99.90;;;;;;4998414;28;20298;-84
2024/02/10 10:35:27;;;;;;;27.03;13.27;;;12.60;99.90;;;;;;5032751;27;20247;-84
2024/02/10 10:38:03;;;;;;;34.40;13.53;;;12.60;99.90;;;;;;4999789;28;20211;-84
2024/02/10 10:41:22;;;;;;;32.73;14.27;;;12.60;99.90;;;;;;5008997;28;20222;-84
2024/02/10 10:44:36;;;;;;;28.93;13.30;;;12.60;99.90;;;;;;5011735;28;20195;-85
2024/02/10 10:47:41;;;;;;;21.87;12.17;;;12.60;99.90;;;;;;4996751;28;20204;-84
2024/02/10 10:50:32;;;;;;;31.87;12.43;;;12.60;99.90;;;;;;5017057;28;20260;-84
2024/02/10 10:53:12;;;;;;;21.57;12.47;;;12.60;99.90;;;;;;5004552;28;20222;-84
2024/02/10 10:55:50;;;;;;;34.30;14.40;;;12.60;99.90;;;;;;5008123;28;20220;-84
2024/02/10 10:58:24;;;;;;;30.67;13.33;;;12.60;99.90;;;;;;4989966;28;20248;-85
2024/02/10 11:01:02;;;;;;;27.37;12.77;;;12.60;99.90;;;;;;4995487;28;20220;-84
2024/02/10 11:03:43;;;;;;;26.23;12.77;;;12.60;99.90;;;;;;5008604;28;20212;-85
2024/02/10 11:06:22;;;;;;;26.13;12.50;;;12.60;99.90;;;;;;5008414;28;20196;-85
2024/02/10 11:08:58;;;;;;;26.90;12.50;;;12.60;99.90;;;;;;4996126;28;20208;-84
2024/02/10 11:11:57;;;;;;;25.13;13.63;;;12.60;99.90;;;;;;5010542;28;20661;-85
2024/02/10 11:14:27;;;;;;;23.53;12.93;;;12.60;99.90;;;;;;5026332;28;20648;-85
2024/02/10 11:16:58;;;;;;;30.97;12.40;;;12.60;99.90;;;;;;5033583;27;20212;-85
2024/02/10 11:19:59;;;;;;;27.63;14.23;;;12.60;99.90;;;;;;4998234;28;20527;-85
2024/02/10 11:23:11;;;;;;;26.10;12.77;;;12.60;99.90;;;;;;4991500;28;20214;-84
2024/02/10 11:26:05;;;;;;;21.40;11.47;;;12.70;99.90;;;;;;4926550;28;20305;-84
2024/02/10 11:28:37;;;;;;;36.63;14.93;;;12.70;99.90;;;;;;4938638;28;20633;-84
2024/02/10 11:31:23;;;;;;;34.00;13.67;;;12.70;99.90;;;;;;5017798;28;20620;-85
2024/02/10 11:34:00;;;;;;;28.97;13.50;;;12.80;99.90;;;;;;5015981;28;20209;-85
2024/02/10 11:36:28;;;;;;;27.23;12.93;;;12.80;99.90;;;;;;4998134;28;20305;-85
2024/02/10 11:39:03;;;;;;;23.60;12.50;;;12.80;99.90;;;;;;5013624;28;20645;-85
2024/02/10 11:41:40;;;;;;;25.03;14.47;;;12.80;99.90;;;;;;4997912;28;20279;-85
2024/02/10 11:44:11;;;;;;;30.10;13.17;;;12.80;99.90;;;;;;4995544;28;20212;-85
2024/02/10 11:46:46;;;;;;;30.27;14.30;;;12.90;99.90;;;;;;5000029;28;20191;-85
2024/02/10 11:49:15;;;;;;;32.87;13.60;;;12.90;99.90;;;;;;5023691;28;20268;-85
2024/02/10 11:51:56;;;;;;;28.57;12.77;;;12.90;99.90;;;;;;5011830;28;20556;-85
2024/02/10 11:54:29;;;;;;;26.60;13.93;;;13.00;99.90;;;;;;4998095;28;20200;-85
2024/02/10 11:57:08;;;;;;;30.50;12.60;;;13.00;99.90;;;;;;5014508;28;20242;-85
2024/02/10 12:00:04;;;;;;;24.93;12.40;;;13.00;99.90;;;;;;5013423;28;20241;-85
2024/02/10 12:02:53;;;;;;;19.33;12.00;;;13.00;99.90;;;;;;5023838;28;20237;-84
2024/02/10 12:05:34;;;;;;;21.97;12.77;;;13.10;99.90;;;;;;5016909;28;20199;-85
2024/02/10 12:08:10;;;;;;;25.57;12.17;;;13.00;99.90;;;;;;5041857;28;20542;-85
2024/02/10 12:10:42;;;;;;;25.70;12.13;;;13.10;99.90;;;;;;5010813;28;20215;-85
2024/02/10 12:13:30;;;;;;;26.30;11.73;;;13.00;99.90;;;;;;5005456;28;20211;-83
2024/02/10 12:16:07;;;;;;;22.50;10.83;;;13.00;99.90;;;;;;5000479;28;20212;-85
2024/02/10 12:18:54;;;;;;;29.40;11.10;;;13.00;99.90;;;;;;5029761;28;20586;-84
2024/02/10 12:21:40;;;;;;;17.23;10.40;;;12.90;99.90;;;;;;4988242;28;20230;-82
2024/02/10 12:24:21;;;;;;;15.93;9.93;;;12.90;99.90;;;;;;4997385;28;20209;-84
2024/02/10 12:27:22;;;;;;;24.43;10.33;;;12.90;99.90;;;;;;5033222;28;20204;-85
2024/02/10 12:29:55;;;;;;;26.20;9.30;;;12.90;99.90;;;;;;5030901;28;20669;-84
2024/02/10 12:32:28;;;;;;;22.20;9.60;;;12.90;99.90;;;;;;5011466;28;20212;-83
2024/02/10 12:35:06;;;;;;;24.10;8.70;;;12.80;99.90;;;;;;4994585;28;20208;-84
2024/02/10 12:37:47;;;;;;;18.60;8.07;;;12.80;99.90;;;;;;5025022;28;20553;-83
2024/02/10 12:40:36;;;;;;;20.13;7.07;;;12.80;99.90;;;;;;5034564;28;20223;-85
2024/02/10 12:43:04;;;;;;;25.43;7.17;;;12.70;99.90;;;;;;5011893;28;20290;-83
2024/02/10 12:46:10;;;;;;;20.30;7.87;;;12.70;99.90;;;;;;5025812;28;20657;-83
2024/02/10 12:49:09;;;;;;;24.80;7.40;;;12.70;99.90;;;;;;5018710;28;20226;-83
2024/02/10 12:51:40;;;;;;;17.43;6.37;;;12.70;99.90;;;;;;5002081;28;20300;-83
2024/02/10 12:54:16;;;;;;;15.57;6.17;;;12.70;99.90;;;;;;5001503;28;20217;-86
2024/02/10 12:56:53;;;;;;;19.30;7.27;;;12.70;99.90;;;;;;5011636;28;20248;-83
2024/02/10 12:59:29;;;;;;;13.53;6.50;;;12.70;99.90;;;;;;5004527;28;20212;-83
2024/02/10 13:02:13;;;;;;;11.33;6.57;;;12.70;99.90;;;;;;5022538;28;20201;-85
2024/02/10 13:04:47;;;;;;;18.43;7.00;;;12.70;99.90;;;;;;4994207;28;20204;-85
2024/02/10 13:07:32;;;;;;;13.37;7.73;;;12.70;99.90;;;;;;5013364;28;20662;-85
2024/02/10 13:10:18;;;;;;;17.07;8.37;;;12.70;99.90;;;;;;5014579;28;20283;-85
2024/02/10 13:12:55;;;;;;;15.77;7.40;;;12.70;99.90;;;;;;5001141;28;20307;-85
2024/02/10 13:15:38;;;;;;;18.50;8.20;;;12.60;99.90;;;;;;5017920;28;20633;-84
2024/02/10 13:18:16;;;;;;;21.10;8.57;;;12.60;99.90;;;;;;5002215;28;20228;-84
2024/02/10 13:21:01;;;;;;;18.80;9.23;;;12.60;99.90;;;;;;5021398;28;20230;-82
2024/02/10 13:23:29;;;;;;;18.67;9.00;;;12.60;99.90;;;;;;5005074;28;20208;-83
2024/02/10 13:25:59;;;;;;;22.97;9.23;;;12.60;99.90;;;;;;5013948;28;20219;-83
2024/02/10 13:28:40;;;;;;;21.10;9.37;;;12.60;99.90;;;;;;5009231;28;20221;-83
2024/02/10 13:31:10;;;;;;;19.37;9.63;;;12.60;99.90;;;;;;5016753;28;20198;-83
2024/02/10 13:33:50;;;;;;;21.67;9.07;;;12.60;99.90;;;;;;5022491;28;20266;-85
2024/02/10 14:03:00;;;;;;;25.63;8.50;;;12.60;99.90;;;;;;5015522;28;20235;-84
2024/02/10 14:05:04;;;;;;;26.00;10.10;;;12.50;99.90;;;;;;5002951;28;20223;-83
2024/02/10 14:10:21;;;;;;;30.40;9.33;;;12.60;99.90;;;;;;5033405;28;20231;-84
2024/02/10 14:13:16;;;;;;;37.50;11.53;;;12.60;99.90;;;;;;5012950;28;20531;-83
2024/02/10 14:15:53;;;;;;;28.40;9.47;;;12.60;99.90;;;;;;5002487;28;20229;-84
2024/02/10 14:18:32;;;;;;;24.10;9.17;;;12.60;99.90;;;;;;5012494;28;20280;-84
2024/02/10 14:21:28;;;;;;;28.40;8.87;;;12.70;99.90;;;;;;5004003;28;20230;-85
2024/02/10 14:24:11;;;;;;;35.03;9.83;;;12.70;99.90;;;;;;5012901;28;20229;-86
2024/02/10 14:27:18;;;;;;;33.43;9.67;;;12.70;99.90;;;;;;4991368;28;20201;-85
2024/02/10 14:29:54;;;;;;;24.93;8.37;;;12.70;99.90;;;;;;4983119;28;20219;-84
2024/02/10 14:32:40;;;;;;;34.87;9.50;;;12.70;99.90;;;;;;5019253;28;20283;-84
2024/02/10 14:35:34;;;;;;;31.80;9.67;;;12.70;99.90;;;;;;5022225;28;20211;-83
2024/02/10 14:38:28;;;;;;;35.33;10.10;;;12.70;99.90;;;;;;4989180;28;20201;-84